KDAN/DAN METAR and TAF weather

Enter ICAO airport designator
Station Type Date Time Source
KDAN METAR 2022/05/24 11:53 UTC NOAA

KDAN 241153Z AUTO 03011KT 6SM BR OVC005 14/13 A3009 RMK AO2 RAE39 CIG 004V008 SLP180 P0005 60015 70133 T01440133 10150 20144 53013


Station Type Date Time Source
KDAN Decoded METAR 2022/05/24 11:53 UTC NOAA

DANVILLE REGIONAL AIRPORT, VA, United States (KDAN) 36-34N 079-20W 175M
May 24, 2022 - 07:53 AM EDT / 2022.05.24 1153 UTC
Wind: from the NNE (030 degrees) at 13 MPH (11 KT):0
Visibility: 6 mile(s):0
Sky conditions: overcast
Weather: mist
Precipitation last hour: 0.05 inches
Temperature: 57.9 F (14.4 C)
Dew Point: 55.9 F (13.3 C)
Relative Humidity: 93%
Pressure (altimeter): 30.09 in. Hg (1018 hPa)
Pressure tendency: 0.04 inches (1.3 hPa) higher than three hours ago
ob: KDAN 241153Z AUTO 03011KT 6SM BR OVC005 14/13 A3009 RMK AO2 RAE39 CIG 004V008 SLP180 P0005 60015 70133 T01440133 10150 20144 53013
cycle: 12

Station Type Date Time Source
KDAN TAF 2022/05/24 12:22 UTC NOAA

TAF KDAN 241120Z 2412/2512 05007G14KT 5SM -RA BR OVC004
FM241400 05009KT 4SM -DZ BR OVC005
FM241800 04008KT P6SM OVC007
FM242200 05008KT 3SM BR OVC008

Example: see airport list